createdAt,value
2022-12-18T00:05:15.477Z,-1.5
2022-12-18T00:10:54.992Z,-1.5
2022-12-18T00:16:09.433Z,-1.5
2022-12-18T00:21:45.775Z,-1.4
2022-12-18T00:27:15.820Z,-1.4
2022-12-18T00:33:03.753Z,-1.3
2022-12-18T00:38:21.465Z,-1.3
2022-12-18T00:44:09.072Z,-1.3
2022-12-18T00:49:38.835Z,-1.2
2022-12-18T00:55:13.905Z,-1.2
2022-12-18T01:00:22.732Z,-1.2
2022-12-18T01:06:16.725Z,-1.2
2022-12-18T01:11:48.300Z,-1.1
2022-12-18T01:16:54.312Z,-1.1
2022-12-18T01:22:48.641Z,-1.2
2022-12-18T01:28:15.008Z,-1.2
2022-12-18T01:33:33.152Z,-1.2
2022-12-18T01:39:05.742Z,-1.2
2022-12-18T01:44:46.256Z,-1.3
2022-12-18T01:50:18.442Z,-1.4
2022-12-18T01:55:38.250Z,-1.4
2022-12-18T02:06:48.958Z,-1.4
2022-12-18T02:12:12.106Z,-1.5
2022-12-18T02:17:46.442Z,-1.4
2022-12-18T02:23:33.446Z,-1.5
2022-12-18T02:28:50.478Z,-1.4
2022-12-18T02:34:30.065Z,-1.4
2022-12-18T02:39:53.589Z,-1.4
2022-12-18T02:45:11.526Z,-1.3
2022-12-18T02:50:54.644Z,-1.3
2022-12-18T03:01:53.173Z,-1.3
2022-12-18T03:07:27.947Z,-1.3
2022-12-18T03:13:04.083Z,-1.3
2022-12-18T03:18:29.717Z,-1.3
2022-12-18T03:24:13.896Z,-1.3
2022-12-18T03:29:41.950Z,-1.3
2022-12-18T03:34:56.208Z,-1.4
2022-12-18T03:40:37.769Z,-1.3
2022-12-18T03:46:11.321Z,-1.2
2022-12-18T03:51:33.559Z,-1.2
2022-12-18T03:57:03.895Z,-1.2
2022-12-18T04:02:27.569Z,-1.2
2022-12-18T04:08:05.291Z,-1.2
2022-12-18T04:14:03.629Z,-1.2
2022-12-18T04:19:04.937Z,-1.2
2022-12-18T04:24:45.150Z,-1.2
2022-12-18T04:30:28.411Z,-1.2
2022-12-18T04:35:59.907Z,-1.2
2022-12-18T04:41:24.827Z,-1.2
2022-12-18T04:46:47.216Z,-1.2
2022-12-18T04:52:12.212Z,-1.2
2022-12-18T04:57:39.211Z,-1.2
2022-12-18T05:03:22.632Z,-1.2
2022-12-18T05:09:04.548Z,-1.2
2022-12-18T05:14:23.158Z,-1.2
2022-12-18T05:20:07.512Z,-1.1
2022-12-18T05:25:29.776Z,-1.2
2022-12-18T05:31:14.065Z,-1.2
2022-12-18T05:36:42.878Z,-1.2
2022-12-18T05:42:10.677Z,-1.1
2022-12-18T05:47:33.922Z,-1.2
2022-12-18T05:53:15.558Z,-1.3
2022-12-18T05:58:29.387Z,-1.3
2022-12-18T06:04:18.171Z,-1.3
2022-12-18T06:09:28.367Z,-1.3
2022-12-18T06:15:10.292Z,-1.4
2022-12-18T06:20:51.697Z,-1.4
2022-12-18T06:26:27.980Z,-1.3
2022-12-18T06:31:37.675Z,-1.3
2022-12-18T06:37:04.027Z,-1.2
2022-12-18T06:42:46.960Z,-1.2
2022-12-18T06:48:25.370Z,-1.2
2022-12-18T06:53:35.500Z,-1.2
2022-12-18T06:59:19.365Z,-1.3
2022-12-18T07:04:49.732Z,-1.3
2022-12-18T07:10:18.383Z,-1.3
2022-12-18T07:15:58.684Z,-1.2
2022-12-18T07:21:26.230Z,-1.2
2022-12-18T07:27:00.161Z,-1.1
2022-12-18T07:32:28.442Z,-1.1
2022-12-18T07:37:53.359Z,-1.1
2022-12-18T07:43:26.947Z,-1
2022-12-18T07:48:50.390Z,-0.9
2022-12-18T07:54:22.946Z,-0.9
2022-12-18T07:59:58.156Z,-0.9
2022-12-18T08:05:47.941Z,-0.8
2022-12-18T08:11:07.939Z,-0.7
2022-12-18T08:16:29.353Z,-0.8
2022-12-18T08:21:52.780Z,-0.6
2022-12-18T08:27:31.478Z,-0.6
2022-12-18T08:33:14.940Z,-0.7
2022-12-18T08:38:36.072Z,-0.7
2022-12-18T08:44:00.063Z,-0.6
2022-12-18T08:49:34.668Z,-0.6
2022-12-18T08:55:22.418Z,-0.6
2022-12-18T09:00:52.796Z,-0.5
2022-12-18T09:06:04.810Z,-0.3
2022-12-18T09:11:57.279Z,-0.4
2022-12-18T09:17:29.318Z,-0.4
2022-12-18T09:23:11.378Z,-0.3
2022-12-18T09:28:13.077Z,-0.1
2022-12-18T09:33:58.131Z,0
2022-12-18T09:39:32.562Z,0.1
2022-12-18T09:44:51.087Z,0.1
2022-12-18T09:50:23.775Z,0.2
2022-12-18T09:56:14.870Z,0.3
2022-12-18T10:01:33.406Z,0.4
2022-12-18T10:06:53.607Z,0.7
2022-12-18T10:12:43.153Z,0.7
2022-12-18T10:18:21.822Z,0.6
2022-12-18T10:23:37.397Z,0.5
2022-12-18T10:29:06.968Z,0.7
2022-12-18T10:34:35.458Z,0.5
2022-12-18T10:40:02.292Z,0.5
2022-12-18T10:45:33.257Z,0.2
2022-12-18T10:51:28.848Z,0.4
2022-12-18T10:57:00.404Z,0.4
2022-12-18T11:02:10.423Z,0.7
2022-12-18T11:07:47.093Z,0.8
2022-12-18T11:13:28.332Z,0.6
2022-12-18T11:18:50.373Z,0.8
2022-12-18T11:24:34.518Z,0.7
2022-12-18T11:29:53.497Z,0.7
2022-12-18T11:35:19.540Z,0.9
2022-12-18T11:41:02.139Z,1
2022-12-18T11:46:43.077Z,1
2022-12-18T11:52:17.186Z,0.8
2022-12-18T11:57:50.616Z,1
2022-12-18T12:03:06.591Z,1.1
2022-12-18T12:08:53.554Z,1.2
2022-12-18T12:14:21.418Z,1.2
2022-12-18T12:19:43.705Z,1
2022-12-18T12:25:07.876Z,1
2022-12-18T12:30:50.511Z,1
2022-12-18T12:36:23.511Z,1.1
2022-12-18T12:41:58.171Z,1.1
2022-12-18T12:47:12.826Z,1.2
2022-12-18T12:52:54.471Z,1.4
2022-12-18T12:58:35.098Z,1.5
2022-12-18T13:04:03.680Z,1.5
2022-12-18T13:09:18.390Z,1.4
2022-12-18T13:14:46.298Z,1.3
2022-12-18T13:20:23.866Z,1.2
2022-12-18T13:26:12.501Z,1.4
2022-12-18T13:31:32.721Z,1.3
2022-12-18T13:36:56.710Z,1
2022-12-18T13:42:24.599Z,1.1
2022-12-18T13:48:17.502Z,1.2
2022-12-18T13:53:51.431Z,1.4
2022-12-18T13:59:18.352Z,1.3
2022-12-18T14:04:48.946Z,1.3
2022-12-18T14:10:41.079Z,1.5
2022-12-18T14:15:47.869Z,1.5
2022-12-18T14:21:31.977Z,1.4
2022-12-18T14:26:43.800Z,1.7
2022-12-18T14:32:22.690Z,1.7
2022-12-18T14:37:56.537Z,1.5
2022-12-18T14:43:34.482Z,1.4
2022-12-18T14:48:46.852Z,1.3
2022-12-18T14:54:42.137Z,1.2
2022-12-18T14:59:50.203Z,1.1
2022-12-18T15:05:41.398Z,1.1
2022-12-18T15:10:49.673Z,1.1
2022-12-18T15:16:21.858Z,1.1
2022-12-18T15:22:11.259Z,1
2022-12-18T15:27:39.087Z,0.9
2022-12-18T15:32:57.518Z,0.8
2022-12-18T15:38:35.935Z,0.6
2022-12-18T15:44:10.444Z,0.5
2022-12-18T15:49:52.229Z,0.4
2022-12-18T15:55:05.842Z,0.4
2022-12-18T16:00:54.746Z,0.3
2022-12-18T16:06:33.117Z,0.2
2022-12-18T16:11:49.351Z,0.2
2022-12-18T16:17:09.220Z,0.1
2022-12-18T16:22:50.437Z,0.1
2022-12-18T16:28:34.183Z,0.1
2022-12-18T16:33:44.056Z,0.2
2022-12-18T16:39:29.820Z,0.1
2022-12-18T16:44:53.961Z,0
2022-12-18T16:50:21.283Z,0
2022-12-18T16:55:44.317Z,0
2022-12-18T17:01:25.420Z,0
2022-12-18T17:07:13.369Z,0
2022-12-18T17:12:23.724Z,0
2022-12-18T17:18:05.393Z,0
2022-12-18T17:23:20.974Z,0
2022-12-18T17:29:02.296Z,0
2022-12-18T17:34:29.953Z,0
2022-12-18T17:39:58.158Z,0.1
2022-12-18T17:45:30.156Z,0
2022-12-18T17:51:18.404Z,0
2022-12-18T17:56:45.165Z,0
2022-12-18T18:02:20.250Z,0
2022-12-18T18:07:42.209Z,0
2022-12-18T18:13:21.689Z,0
2022-12-18T18:18:34.846Z,-0.1
2022-12-18T18:24:07.331Z,0
2022-12-18T18:29:54.123Z,0
2022-12-18T18:35:52.664Z,0
2022-12-18T18:41:02.144Z,0
2022-12-18T18:46:24.625Z,-0.1
2022-12-18T18:51:49.408Z,-0.1
2022-12-18T18:57:24.325Z,-0.1
2022-12-18T19:03:00.389Z,-0.2
2022-12-18T19:08:28.562Z,-0.2
2022-12-18T19:14:09.473Z,-0.2
2022-12-18T19:19:19.975Z,-0.2
2022-12-18T19:24:59.667Z,-0.2
2022-12-18T19:30:45.282Z,-0.1
2022-12-18T19:35:55.618Z,-0.2
2022-12-18T19:41:44.808Z,-0.2
2022-12-18T19:46:55.090Z,-0.2
2022-12-18T19:52:47.559Z,-0.2
2022-12-18T19:57:56.742Z,-0.2
2022-12-18T20:03:36.016Z,-0.2
2022-12-18T20:09:02.308Z,-0.2
2022-12-18T20:14:29.211Z,-0.2
2022-12-18T20:20:00.965Z,-0.3
2022-12-18T20:25:58.581Z,-0.4
2022-12-18T20:31:13.630Z,-0.3
2022-12-18T20:36:41.046Z,-0.4
2022-12-18T20:42:23.014Z,-0.4
2022-12-18T20:47:56.396Z,-0.3
2022-12-18T20:53:15.846Z,-0.2
2022-12-18T20:58:51.331Z,-0.2
2022-12-18T21:04:20.065Z,-0.2
2022-12-18T21:10:09.549Z,-0.2
2022-12-18T21:15:36.253Z,-0.2
2022-12-18T21:21:16.024Z,-0.3
2022-12-18T21:26:45.620Z,-0.2
2022-12-18T21:31:52.401Z,-0.2
2022-12-18T21:37:38.114Z,-0.1
2022-12-18T21:43:14.952Z,-0.1
2022-12-18T21:48:41.659Z,-0.2
2022-12-18T21:54:19.383Z,-0.1
2022-12-18T21:59:33.322Z,-0.1
2022-12-18T22:05:06.942Z,-0.1
2022-12-18T22:10:29.151Z,-0.1
2022-12-18T22:16:15.698Z,-0.1
2022-12-18T22:21:52.773Z,0
2022-12-18T22:27:12.671Z,0
2022-12-18T22:32:33.353Z,-0.1
2022-12-18T22:38:08.453Z,0
2022-12-18T22:43:37.658Z,0
2022-12-18T22:49:10.630Z,0
2022-12-18T22:54:53.505Z,0
2022-12-18T23:00:11.753Z,0
2022-12-18T23:05:44.987Z,0
2022-12-18T23:11:10.106Z,0
2022-12-18T23:17:05.122Z,0
2022-12-18T23:22:18.918Z,0
2022-12-18T23:27:53.496Z,0.1
2022-12-18T23:33:36.535Z,0.1
2022-12-18T23:39:15.358Z,0.1
2022-12-18T23:44:44.925Z,0
2022-12-18T23:49:55.577Z,0.1
2022-12-18T23:55:23.090Z,0.1
